| time (UTC) | temp F | wind direction | speed MPH | gust MPH | rain 1hr in | rain 24hr in | rain mn in | humidity % | barometer mb |
| 20260905231527 | 70 | 335 | 0.0 | 0.0 | 0.00 | 0.00 | 0.00 | 77 | 1012.9 |
| 20260905230013 | 71 | 335 | 0.0 | 1.0 | 0.00 | 0.00 | 0.00 | 76 | 1012.8 |
| 20260905224511 | 71 | 203 | 0.0 | 1.0 | 0.00 | 0.00 | 0.00 | 77 | 1012.7 |
| 20260905223018 | 71 | 345 | 0.0 | 0.0 | 0.00 | 0.00 | 0.00 | 79 | 1012.6 |
| 20260905221508 | 72 | 345 | 0.0 | 1.0 | 0.00 | 0.00 | 0.00 | 76 | 1012.5 |
| 20260905220007 | 73 | 345 | 0.0 | 1.0 | 0.00 | 0.00 | 0.00 | 71 | 1012.5 |
| 20260905214504 | 74 | 345 | 0.0 | 2.0 | 0.00 | 0.00 | 0.00 | 67 | 1012.4 |
| 20260905213002 | 75 | 46 | 0.0 | 2.0 | 0.00 | 0.00 | 0.00 | 68 | 1012.2 |
| 20260905211504 | 76 | 333 | 0.0 | 2.0 | 0.00 | 0.00 | 0.00 | 68 | 1012.1 |
| 20260905210059 | 78 | 18 | 0.0 | 2.0 | 0.00 | 0.00 | 0.00 | 65 | 1011.9 |
| 20260905204602 | 80 | 282 | 0.0 | 3.0 | 0.00 | 0.00 | 0.00 | 62 | 1011.8 |
| 20260905203100 | 81 | 139 | 0.0 | 3.0 | 0.00 | 0.00 | 0.00 | 62 | 1011.8 |
| 20260905201602 | 80 | 269 | 0.0 | 2.0 | 0.00 | 0.00 | 0.00 | 62 | 1011.8 |
| 20260905200050 | 82 | 131 | 0.0 | 4.0 | 0.00 | 0.00 | 0.00 | 60 | 1011.6 |
| 20260905194548 | 81 | 350 | 0.0 | 3.0 | 0.00 | 0.00 | 0.00 | 62 | 1011.7 |
| 20260905193045 | 79 | 353 | 0.0 | 2.0 | 0.00 | 0.00 | 0.00 | 62 | 1011.7 |
| 20260905191543 | 82 | 356 | 1.0 | 4.0 | 0.00 | 0.00 | 0.00 | 58 | 1011.7 |
| 20260905190041 | 80 | 355 | 0.0 | 3.0 | 0.00 | 0.00 | 0.00 | 61 | 1011.7 |
| 20260905184545 | 81 | 17 | 0.0 | 3.0 | 0.00 | 0.00 | 0.00 | 62 | 1011.9 |
| 20260905183042 | 80 | 154 | 0.0 | 4.0 | 0.00 | 0.00 | 0.00 | 63 | 1011.9 |
| 20260905181532 | 80 | 34 | 0.0 | 3.0 | 0.00 | 0.00 | 0.00 | 61 | 1012.1 |
| 20260905180030 | 79 | 299 | 1.0 | 2.0 | 0.00 | 0.00 | 0.00 | 63 | 1012.1 |
| 20260905174528 | 79 | 13 | 0.0 | 2.0 | 0.00 | 0.00 | 0.00 | 64 | 1012.3 |
| 20260905173026 | 79 | 193 | 0.0 | 2.0 | 0.00 | 0.00 | 0.00 | 69 | 1012.4 |
| 20260905171522 | 78 | 36 | 0.0 | 3.0 | 0.00 | 0.00 | 0.00 | 65 | 1012.5 |
| 20260905170020 | 78 | 43 | 0.0 | 4.0 | 0.00 | 0.00 | 0.00 | 67 | 1012.6 |
| 20260905164517 | 77 | 28 | 0.0 | 4.0 | 0.00 | 0.00 | 0.00 | 69 | 1012.5 |
| 20260905163017 | 74 | 357 | 0.0 | 2.0 | 0.00 | 0.00 | 0.00 | 75 | 1012.4 |
| 20260905161514 | 74 | 6 | 0.0 | 3.0 | 0.00 | 0.00 | 0.00 | 69 | 1012.6 |
| 20260905160010 | 75 | 45 | 0.0 | 2.0 | 0.00 | 0.00 | 0.00 | 73 | 1012.5 |
| 20260905154507 | 76 | 34 | 0.0 | 3.0 | 0.00 | 0.00 | 0.00 | 72 | 1012.5 |
| 20260905153009 | 74 | 354 | 0.0 | 2.0 | 0.00 | 0.00 | 0.00 | 75 | 1012.6 |
| 20260905151503 | 73 | 326 | 0.0 | 4.0 | 0.00 | 0.00 | 0.00 | 74 | 1012.6 |
| 20260905150101 | 73 | 319 | 0.0 | 2.0 | 0.00 | 0.00 | 0.00 | 74 | 1012.7 |
| 20260905144557 | 72 | 332 | 0.0 | 2.0 | 0.00 | 0.00 | 0.00 | 78 | 1012.7 |
| 20260905143055 | 72 | 349 | 0.0 | 2.0 | 0.00 | 0.00 | 0.00 | 78 | 1012.9 |
| 20260905141552 | 72 | 331 | 0.0 | 3.0 | 0.00 | 0.00 | 0.00 | 78 | 1012.7 |
| 20260905140051 | 72 | 6 | 0.0 | 2.0 | 0.00 | 0.00 | 0.00 | 81 | 1012.5 |
| 20260905134550 | 71 | 112 | 0.0 | 1.0 | 0.00 | 0.00 | 0.00 | 84 | 1012.8 |
| 20260905133042 | 71 | 119 | 0.0 | 1.0 | 0.00 | 0.00 | 0.00 | 84 | 1012.8 |
| 20260905131543 | 71 | 164 | 0.0 | 2.0 | 0.00 | 0.00 | 0.00 | 85 | 1013.0 |
| 20260905130041 | 68 | 45 | 0.0 | 0.0 | 0.00 | 0.00 | 0.00 | 89 | 1013.1 |
| 20260905124531 | 67 | 45 | 0.0 | 0.0 | 0.00 | 0.00 | 0.00 | 91 | 1013.2 |
| 20260905123026 | 65 | 43 | 0.0 | 0.0 | 0.00 | 0.00 | 0.00 | 92 | 1013.4 |
| 20260905121520 | 63 | 43 | 0.0 | 0.0 | 0.00 | 0.00 | 0.00 | 93 | 1013.1 |
| 20260905120019 | 62 | 43 | 0.0 | 0.0 | 0.00 | 0.00 | 0.00 | 93 | 1013.2 |
| 20260905114514 | 61 | 44 | 0.0 | 0.0 | 0.00 | 0.00 | 0.00 | 95 | 1012.9 |
| 20260905113013 | 59 | 356 | 0.0 | 0.0 | 0.00 | 0.00 | 0.00 | 95 | 1012.7 |
| 20260905111513 | 59 | 356 | 0.0 | 0.0 | 0.00 | 0.00 | 0.00 | 95 | 1012.7 |
| 20260905110008 | 57 | 356 | 0.0 | 0.0 | 0.00 | 0.00 | 0.00 | 95 | 1012.5 |
| 20260905104505 | 57 | 356 | 0.0 | 0.0 | 0.00 | 0.00 | 0.00 | 95 | 1012.2 |
| 20260905103002 | 57 | 356 | 0.0 | 0.0 | 0.00 | 0.00 | 0.00 | 95 | 1012.0 |
| 20260905101501 | 57 | 356 | 0.0 | 0.0 | 0.00 | 0.00 | 0.00 | 95 | 1011.8 |
| 20260905100107 | 57 | 356 | 0.0 | 0.0 | 0.00 | 0.00 | 0.00 | 95 | 1011.7 |
| 20260905094555 | 58 | 356 | 0.0 | 0.0 | 0.00 | 0.00 | 0.00 | 95 | 1011.9 |
| 20260905093052 | 58 | 356 | 0.0 | 0.0 | 0.00 | 0.00 | 0.00 | 95 | 1011.9 |
| 20260905091548 | 58 | 356 | 0.0 | 0.0 | 0.00 | 0.00 | 0.00 | 95 | 1011.9 |
| 20260905090112 | 58 | 356 | 0.0 | 0.0 | 0.00 | 0.00 | 0.00 | 95 | 1011.6 |
| 20260905084544 | 58 | 356 | 0.0 | 0.0 | 0.00 | 0.00 | 0.00 | 95 | 1011.6 |
| 20260905083041 | 59 | 356 | 0.0 | 0.0 | 0.00 | 0.00 | 0.00 | 95 | 1011.6 |
| 20260905081538 | 59 | 356 | 0.0 | 0.0 | 0.00 | 0.00 | 0.00 | 95 | 1011.6 |
| 20260905080035 | 59 | 356 | 0.0 | 0.0 | 0.00 | 0.47 | 0.00 | 95 | 1011.7 |
| 20260905074532 | 60 | 356 | 0.0 | 0.0 | 0.00 | 0.47 | 0.00 | 95 | 1011.8 |
| 20260905073031 | 60 | 356 | 0.0 | 0.0 | 0.00 | 0.47 | 0.00 | 95 | 1011.8 |
| 20260905071528 | 60 | 356 | 0.0 | 0.0 | 0.00 | 0.47 | 0.00 | 95 | 1011.9 |
| 20260905070024 | 60 | 356 | 0.0 | 0.0 | 0.00 | 0.68 | 0.00 | 94 | 1011.8 |
| 20260905064522 | 60 | 356 | 0.0 | 0.0 | 0.00 | 0.68 | 0.00 | 94 | 1012.0 |
| 20260905063018 | 61 | 356 | 0.0 | 0.0 | 0.00 | 0.68 | 0.00 | 94 | 1012.1 |
| 20260905061527 | 61 | 356 | 0.0 | 0.0 | 0.00 | 0.68 | 0.00 | 94 | 1012.2 |
| 20260905060012 | 62 | 356 | 0.0 | 0.0 | 0.00 | 0.68 | 0.00 | 94 | 1012.3 |
| 20260905054507 | 62 | 356 | 0.0 | 0.0 | 0.00 | 0.68 | 0.00 | 94 | 1012.6 |
| 20260905053003 | 62 | 356 | 0.0 | 0.0 | 0.00 | 0.68 | 0.00 | 94 | 1012.6 |
| 20260905051600 | 63 | 356 | 0.0 | 0.0 | 0.00 | 0.68 | 0.00 | 94 | 1012.9 |
| 20260905050057 | 63 | 356 | 0.0 | 0.0 | 0.00 | 0.68 | 0.00 | 94 | 1012.8 |
| 20260905044555 | 63 | 356 | 0.0 | 0.0 | 0.00 | 0.68 | 0.00 | 94 | 1012.8 |
| 20260905043052 | 63 | 356 | 0.0 | 0.0 | 0.00 | 0.68 | 0.00 | 94 | 1012.9 |
| 20260905041552 | 64 | 356 | 0.0 | 0.0 | 0.00 | 0.68 | 0.00 | 94 | 1012.8 |
| 20260905040044 | 64 | 356 | 0.0 | 0.0 | 0.00 | 0.68 | 0.68 | 94 | 1012.9 |
| 20260905034548 | 64 | 356 | 0.0 | 0.0 | 0.00 | 0.68 | 0.68 | 94 | 1012.8 |
| 20260905033039 | 65 | 356 | 0.0 | 0.0 | 0.00 | 0.68 | 0.68 | 94 | 1012.8 |
| 20260905031538 | 65 | 356 | 0.0 | 0.0 | 0.00 | 0.68 | 0.68 | 94 | 1012.5 |
| 20260905030039 | 65 | 356 | 0.0 | 0.0 | 0.00 | 0.68 | 0.68 | 94 | 1012.5 |
| 20260905024532 | 65 | 356 | 0.0 | 0.0 | 0.00 | 0.68 | 0.68 | 93 | 1012.6 |
| 20260905023030 | 65 | 356 | 0.0 | 0.0 | 0.00 | 0.68 | 0.68 | 93 | 1012.5 |
| 20260905021534 | 66 | 356 | 0.0 | 0.0 | 0.00 | 0.68 | 0.68 | 93 | 1012.5 |
| 20260905020024 | 67 | 356 | 0.0 | 0.0 | 0.00 | 0.68 | 0.68 | 93 | 1012.5 |
| 20260905014520 | 67 | 356 | 0.0 | 0.0 | 0.00 | 0.68 | 0.68 | 93 | 1012.5 |
| 20260905013018 | 68 | 356 | 0.0 | 0.0 | 0.00 | 0.68 | 0.68 | 93 | 1012.6 |
| 20260905011515 | 68 | 356 | 0.0 | 1.0 | 0.00 | 0.68 | 0.68 | 92 | 1012.7 |
| 20260905010013 | 68 | 356 | 0.0 | 0.0 | 0.00 | 0.68 | 0.68 | 92 | 1012.6 |
| 20260905004511 | 69 | 356 | 0.0 | 0.0 | 0.00 | 0.68 | 0.68 | 91 | 1012.6 |
| 20260905003009 | 69 | 356 | 0.0 | 0.0 | 0.00 | 0.68 | 0.68 | 91 | 1012.6 |
| 20260905001508 | 70 | 356 | 0.0 | 0.0 | 0.00 | 0.68 | 0.68 | 90 | 1012.5 |
| 20260905000006 | 70 | 356 | 0.0 | 0.0 | 0.00 | 0.68 | 0.68 | 90 | 1012.3 |
| 20260904234503 | 71 | 356 | 0.0 | 0.0 | 0.00 | 0.68 | 0.68 | 89 | 1012.1 |
| 20260904233003 | 72 | 356 | 0.0 | 0.0 | 0.00 | 0.68 | 0.68 | 88 | 1012.0 |